Stegall, Nebraska
Current Conditions -  °F | °C
As of 10:00 AM on Saturday 22 Nov 2014 (Local Time) from KTOR Reporting Station
Few Clouds Few Clouds  
Wind Chill: 55°   Ceiling: Unl
Heat Index: 55°   Visibility: 8mi
Dew Point: 20°   Wind: 23mph
Humidity: 25%   Direction: 220°SW
Pressure: 29.62"   Gusts: 36mph
Location:  41.9727°N, 103.904°W
Report Text: KTOR 221700Z AUTO 22020G31KT 8SM FEW006 13/M07 A2962 RMK AO2 PK WND 24027/1700 T01281067
Loading
Personal Weather Stations






























Interactive Weather Map New forecast layout! Learn more

10-Day Weather Forecast

Advertisements
Track Severe Weather on mobile